sensor_id;sensor_type;location;lat;lon;timestamp;P1;durP1;ratioP1;P2;durP2;ratioP2
38264;SDS011;24062;47.480;8.768;2023-06-22T00:00:47;2.80;;;2.30;;
38264;SDS011;24062;47.480;8.768;2023-06-22T00:03:15;2.08;;;1.80;;
38264;SDS011;24062;47.480;8.768;2023-06-22T00:05:42;3.65;;;2.00;;
38264;SDS011;24062;47.480;8.768;2023-06-22T00:08:08;3.90;;;2.20;;
38264;SDS011;24062;47.480;8.768;2023-06-22T00:10:37;2.92;;;2.08;;
38264;SDS011;24062;47.480;8.768;2023-06-22T00:13:04;4.38;;;2.78;;
38264;SDS011;24062;47.480;8.768;2023-06-22T00:15:31;2.70;;;2.15;;
38264;SDS011;24062;47.480;8.768;2023-06-22T00:17:58;2.40;;;1.90;;
38264;SDS011;24062;47.480;8.768;2023-06-22T00:20:25;2.10;;;1.77;;
38264;SDS011;24062;47.480;8.768;2023-06-22T00:22:55;2.75;;;2.10;;
38264;SDS011;24062;47.480;8.768;2023-06-22T00:25:22;3.85;;;2.47;;
38264;SDS011;24062;47.480;8.768;2023-06-22T00:27:51;3.00;;;2.53;;
38264;SDS011;24062;47.480;8.768;2023-06-22T00:30:18;2.75;;;2.05;;
38264;SDS011;24062;47.480;8.768;2023-06-22T00:32:45;2.97;;;2.38;;
38264;SDS011;24062;47.480;8.768;2023-06-22T00:35:12;3.10;;;1.95;;
38264;SDS011;24062;47.480;8.768;2023-06-22T00:37:39;4.43;;;2.00;;
38264;SDS011;24062;47.480;8.768;2023-06-22T00:40:07;2.95;;;2.25;;
38264;SDS011;24062;47.480;8.768;2023-06-22T00:42:36;2.92;;;2.38;;
38264;SDS011;24062;47.480;8.768;2023-06-22T00:45:06;3.78;;;2.15;;
38264;SDS011;24062;47.480;8.768;2023-06-22T00:47:34;4.85;;;2.58;;
38264;SDS011;24062;47.480;8.768;2023-06-22T00:50:02;2.60;;;2.05;;
38264;SDS011;24062;47.480;8.768;2023-06-22T00:52:32;2.20;;;1.83;;
38264;SDS011;24062;47.480;8.768;2023-06-22T00:55:00;3.63;;;2.65;;
38264;SDS011;24062;47.480;8.768;2023-06-22T00:57:28;3.13;;;2.00;;
38264;SDS011;24062;47.480;8.768;2023-06-22T00:59:56;2.33;;;2.10;;
38264;SDS011;24062;47.480;8.768;2023-06-22T01:02:24;2.85;;;2.22;;
38264;SDS011;24062;47.480;8.768;2023-06-22T01:04:52;2.90;;;1.92;;
38264;SDS011;24062;47.480;8.768;2023-06-22T01:07:21;3.78;;;2.33;;
38264;SDS011;24062;47.480;8.768;2023-06-22T01:09:57;3.05;;;2.00;;
38264;SDS011;24062;47.480;8.768;2023-06-22T01:12:29;3.75;;;1.85;;
38264;SDS011;24062;47.480;8.768;2023-06-22T01:15:02;2.22;;;1.55;;
38264;SDS011;24062;47.480;8.768;2023-06-22T01:17:36;5.45;;;1.90;;
38264;SDS011;24062;47.480;8.768;2023-06-22T01:20:07;4.05;;;2.10;;
38264;SDS011;24062;47.480;8.768;2023-06-22T01:22:39;3.17;;;2.22;;
38264;SDS011;24062;47.480;8.768;2023-06-22T01:25:19;2.58;;;2.20;;
38264;SDS011;24062;47.480;8.768;2023-06-22T01:27:53;2.90;;;1.80;;
38264;SDS011;24062;47.480;8.768;2023-06-22T01:30:30;2.50;;;1.88;;
38264;SDS011;24062;47.480;8.768;2023-06-22T01:33:00;3.22;;;2.33;;
38264;SDS011;24062;47.480;8.768;2023-06-22T01:35:29;2.78;;;2.15;;
38264;SDS011;24062;47.480;8.768;2023-06-22T01:37:56;2.87;;;2.00;;
38264;SDS011;24062;47.480;8.768;2023-06-22T01:40:24;2.67;;;1.95;;
38264;SDS011;24062;47.480;8.768;2023-06-22T01:42:51;2.28;;;2.08;;
38264;SDS011;24062;47.480;8.768;2023-06-22T01:45:19;3.03;;;2.40;;
38264;SDS011;24062;47.480;8.768;2023-06-22T01:47:49;2.30;;;2.00;;
38264;SDS011;24062;47.480;8.768;2023-06-22T01:50:16;2.28;;;1.90;;
38264;SDS011;24062;47.480;8.768;2023-06-22T01:52:43;2.75;;;2.20;;
38264;SDS011;24062;47.480;8.768;2023-06-22T01:55:10;2.30;;;1.95;;
38264;SDS011;24062;47.480;8.768;2023-06-22T01:57:37;2.00;;;1.60;;
38264;SDS011;24062;47.480;8.768;2023-06-22T02:00:07;2.97;;;1.92;;
38264;SDS011;24062;47.480;8.768;2023-06-22T02:02:39;3.30;;;2.65;;
38264;SDS011;24062;47.480;8.768;2023-06-22T02:05:12;3.78;;;2.60;;
38264;SDS011;24062;47.480;8.768;2023-06-22T02:07:44;2.20;;;2.00;;
38264;SDS011;24062;47.480;8.768;2023-06-22T02:10:15;2.40;;;2.17;;
38264;SDS011;24062;47.480;8.768;2023-06-22T02:12:46;2.10;;;1.80;;
38264;SDS011;24062;47.480;8.768;2023-06-22T02:15:14;3.10;;;2.43;;
38264;SDS011;24062;47.480;8.768;2023-06-22T02:17:42;3.40;;;2.00;;
38264;SDS011;24062;47.480;8.768;2023-06-22T02:20:13;3.50;;;2.50;;
38264;SDS011;24062;47.480;8.768;2023-06-22T02:22:40;2.60;;;2.30;;
38264;SDS011;24062;47.480;8.768;2023-06-22T02:25:08;3.28;;;2.10;;
38264;SDS011;24062;47.480;8.768;2023-06-22T02:27:35;2.92;;;2.30;;
38264;SDS011;24062;47.480;8.768;2023-06-22T02:30:05;2.93;;;2.20;;
38264;SDS011;24062;47.480;8.768;2023-06-22T02:32:33;2.10;;;1.73;;
38264;SDS011;24062;47.480;8.768;2023-06-22T02:35:00;2.73;;;2.00;;
38264;SDS011;24062;47.480;8.768;2023-06-22T02:37:30;3.50;;;2.03;;
38264;SDS011;24062;47.480;8.768;2023-06-22T02:39:57;2.78;;;2.00;;
38264;SDS011;24062;47.480;8.768;2023-06-22T02:42:24;2.47;;;1.97;;
38264;SDS011;24062;47.480;8.768;2023-06-22T02:44:51;3.53;;;2.07;;
38264;SDS011;24062;47.480;8.768;2023-06-22T02:47:18;2.77;;;2.10;;
38264;SDS011;24062;47.480;8.768;2023-06-22T02:49:45;2.63;;;2.30;;
38264;SDS011;24062;47.480;8.768;2023-06-22T02:52:12;6.00;;;3.08;;
38264;SDS011;24062;47.480;8.768;2023-06-22T02:54:40;2.60;;;1.88;;
38264;SDS011;24062;47.480;8.768;2023-06-22T02:57:07;4.85;;;1.90;;
38264;SDS011;24062;47.480;8.768;2023-06-22T02:59:38;2.70;;;1.90;;
38264;SDS011;24062;47.480;8.768;2023-06-22T03:02:05;2.60;;;2.13;;
38264;SDS011;24062;47.480;8.768;2023-06-22T03:04:32;3.05;;;2.38;;
38264;SDS011;24062;47.480;8.768;2023-06-22T03:07:00;3.70;;;1.97;;
38264;SDS011;24062;47.480;8.768;2023-06-22T03:09:27;2.40;;;1.95;;
38264;SDS011;24062;47.480;8.768;2023-06-22T03:11:56;2.67;;;1.70;;
38264;SDS011;24062;47.480;8.768;2023-06-22T03:14:23;2.30;;;2.00;;
38264;SDS011;24062;47.480;8.768;2023-06-22T03:16:50;2.47;;;2.20;;
38264;SDS011;24062;47.480;8.768;2023-06-22T03:19:17;3.60;;;2.10;;
38264;SDS011;24062;47.480;8.768;2023-06-22T03:21:44;2.30;;;1.80;;
38264;SDS011;24062;47.480;8.768;2023-06-22T03:24:11;2.57;;;2.37;;
38264;SDS011;24062;47.480;8.768;2023-06-22T03:26:38;3.10;;;1.87;;
38264;SDS011;24062;47.480;8.768;2023-06-22T03:29:06;5.17;;;2.60;;
38264;SDS011;24062;47.480;8.768;2023-06-22T03:31:33;2.63;;;2.00;;
38264;SDS011;24062;47.480;8.768;2023-06-22T03:34:00;2.83;;;2.30;;
38264;SDS011;24062;47.480;8.768;2023-06-22T03:36:27;3.20;;;2.23;;
38264;SDS011;24062;47.480;8.768;2023-06-22T03:38:54;2.57;;;1.87;;
38264;SDS011;24062;47.480;8.768;2023-06-22T03:41:21;2.77;;;2.20;;
38264;SDS011;24062;47.480;8.768;2023-06-22T03:43:48;2.07;;;1.80;;
38264;SDS011;24062;47.480;8.768;2023-06-22T03:46:16;2.30;;;2.10;;
38264;SDS011;24062;47.480;8.768;2023-06-22T03:48:45;2.40;;;2.20;;
38264;SDS011;24062;47.480;8.768;2023-06-22T03:51:11;2.20;;;1.87;;
38264;SDS011;24062;47.480;8.768;2023-06-22T03:53:38;2.77;;;2.50;;
38264;SDS011;24062;47.480;8.768;2023-06-22T03:56:05;2.23;;;2.03;;
38264;SDS011;24062;47.480;8.768;2023-06-22T03:58:32;2.97;;;2.30;;
38264;SDS011;24062;47.480;8.768;2023-06-22T04:01:00;3.60;;;1.97;;
38264;SDS011;24062;47.480;8.768;2023-06-22T04:03:28;2.27;;;2.00;;
38264;SDS011;24062;47.480;8.768;2023-06-22T04:05:55;1.80;;;1.60;;
38264;SDS011;24062;47.480;8.768;2023-06-22T04:08:22;2.97;;;2.00;;
38264;SDS011;24062;47.480;8.768;2023-06-22T04:10:49;2.20;;;2.00;;
38264;SDS011;24062;47.480;8.768;2023-06-22T04:13:16;2.00;;;1.70;;
38264;SDS011;24062;47.480;8.768;2023-06-22T04:15:43;3.57;;;2.13;;
38264;SDS011;24062;47.480;8.768;2023-06-22T04:18:10;3.60;;;2.50;;
38264;SDS011;24062;47.480;8.768;2023-06-22T04:20:38;2.33;;;1.97;;
38264;SDS011;24062;47.480;8.768;2023-06-22T04:23:05;2.57;;;2.30;;
38264;SDS011;24062;47.480;8.768;2023-06-22T04:25:32;2.80;;;2.10;;
38264;SDS011;24062;47.480;8.768;2023-06-22T04:28:00;2.90;;;2.00;;
38264;SDS011;24062;47.480;8.768;2023-06-22T04:30:28;2.17;;;1.80;;
38264;SDS011;24062;47.480;8.768;2023-06-22T04:32:56;2.40;;;1.90;;
38264;SDS011;24062;47.480;8.768;2023-06-22T04:35:23;2.80;;;2.10;;
38264;SDS011;24062;47.480;8.768;2023-06-22T04:37:52;3.93;;;2.53;;
38264;SDS011;24062;47.480;8.768;2023-06-22T04:40:21;2.10;;;1.80;;
38264;SDS011;24062;47.480;8.768;2023-06-22T04:42:48;5.73;;;1.73;;
38264;SDS011;24062;47.480;8.768;2023-06-22T04:45:18;2.40;;;1.80;;
38264;SDS011;24062;47.480;8.768;2023-06-22T04:47:46;3.53;;;2.17;;
38264;SDS011;24062;47.480;8.768;2023-06-22T04:50:13;4.17;;;2.03;;
38264;SDS011;24062;47.480;8.768;2023-06-22T04:52:40;2.40;;;1.83;;
38264;SDS011;24062;47.480;8.768;2023-06-22T04:55:08;2.40;;;2.20;;
38264;SDS011;24062;47.480;8.768;2023-06-22T04:57:35;2.10;;;1.80;;
38264;SDS011;24062;47.480;8.768;2023-06-22T05:00:05;3.53;;;2.03;;
38264;SDS011;24062;47.480;8.768;2023-06-22T05:02:42;2.77;;;1.90;;
38264;SDS011;24062;47.480;8.768;2023-06-22T05:05:10;2.47;;;1.93;;
38264;SDS011;24062;47.480;8.768;2023-06-22T05:07:39;2.20;;;1.80;;
38264;SDS011;24062;47.480;8.768;2023-06-22T05:10:09;2.40;;;2.00;;
38264;SDS011;24062;47.480;8.768;2023-06-22T05:12:37;3.00;;;2.03;;
38264;SDS011;24062;47.480;8.768;2023-06-22T05:15:05;2.37;;;1.83;;
38264;SDS011;24062;47.480;8.768;2023-06-22T05:17:33;2.50;;;1.80;;
38264;SDS011;24062;47.480;8.768;2023-06-22T05:19:59;2.37;;;1.93;;
38264;SDS011;24062;47.480;8.768;2023-06-22T05:22:27;3.70;;;2.20;;
38264;SDS011;24062;47.480;8.768;2023-06-22T05:24:54;4.20;;;2.20;;
38264;SDS011;24062;47.480;8.768;2023-06-22T05:27:22;4.37;;;2.13;;
38264;SDS011;24062;47.480;8.768;2023-06-22T05:29:49;6.20;;;2.10;;
38264;SDS011;24062;47.480;8.768;2023-06-22T05:32:16;3.93;;;2.47;;
38264;SDS011;24062;47.480;8.768;2023-06-22T05:34:43;4.00;;;2.87;;
38264;SDS011;24062;47.480;8.768;2023-06-22T05:37:10;4.77;;;3.53;;
38264;SDS011;24062;47.480;8.768;2023-06-22T05:39:38;4.60;;;3.30;;
38264;SDS011;24062;47.480;8.768;2023-06-22T05:42:05;4.07;;;3.50;;
38264;SDS011;24062;47.480;8.768;2023-06-22T05:44:34;5.43;;;3.23;;
38264;SDS011;24062;47.480;8.768;2023-06-22T05:47:02;6.40;;;3.78;;
38264;SDS011;24062;47.480;8.768;2023-06-22T05:49:30;5.80;;;3.85;;
38264;SDS011;24062;47.480;8.768;2023-06-22T05:51:57;8.83;;;4.40;;
38264;SDS011;24062;47.480;8.768;2023-06-22T05:54:25;5.53;;;5.00;;
38264;SDS011;24062;47.480;8.768;2023-06-22T05:56:53;7.70;;;5.87;;
38264;SDS011;24062;47.480;8.768;2023-06-22T05:59:20;9.50;;;5.13;;
38264;SDS011;24062;47.480;8.768;2023-06-22T06:01:48;6.13;;;4.23;;
38264;SDS011;24062;47.480;8.768;2023-06-22T06:04:16;9.47;;;5.00;;
38264;SDS011;24062;47.480;8.768;2023-06-22T06:06:43;4.70;;;4.07;;
38264;SDS011;24062;47.480;8.768;2023-06-22T06:09:12;6.30;;;5.50;;
38264;SDS011;24062;47.480;8.768;2023-06-22T06:11:39;5.87;;;5.27;;
38264;SDS011;24062;47.480;8.768;2023-06-22T06:14:06;10.80;;;5.50;;
38264;SDS011;24062;47.480;8.768;2023-06-22T06:16:33;7.50;;;5.03;;
38264;SDS011;24062;47.480;8.768;2023-06-22T06:19:01;9.73;;;5.17;;
38264;SDS011;24062;47.480;8.768;2023-06-22T06:21:28;8.83;;;4.53;;
38264;SDS011;24062;47.480;8.768;2023-06-22T06:23:55;9.27;;;5.97;;
38264;SDS011;24062;47.480;8.768;2023-06-22T06:26:22;12.20;;;5.33;;
38264;SDS011;24062;47.480;8.768;2023-06-22T06:28:53;8.87;;;5.17;;
38264;SDS011;24062;47.480;8.768;2023-06-22T06:31:20;8.03;;;5.30;;
38264;SDS011;24062;47.480;8.768;2023-06-22T06:33:48;9.10;;;5.00;;
38264;SDS011;24062;47.480;8.768;2023-06-22T06:36:16;7.43;;;5.63;;
38264;SDS011;24062;47.480;8.768;2023-06-22T06:38:43;7.40;;;5.10;;
38264;SDS011;24062;47.480;8.768;2023-06-22T06:41:12;12.77;;;6.32;;
38264;SDS011;24062;47.480;8.768;2023-06-22T06:43:39;8.40;;;5.80;;
38264;SDS011;24062;47.480;8.768;2023-06-22T06:46:07;11.77;;;4.77;;
38264;SDS011;24062;47.480;8.768;2023-06-22T06:48:34;7.60;;;5.07;;
38264;SDS011;24062;47.480;8.768;2023-06-22T06:51:01;7.37;;;4.70;;
38264;SDS011;24062;47.480;8.768;2023-06-22T06:53:30;10.80;;;5.22;;
38264;SDS011;24062;47.480;8.768;2023-06-22T06:55:57;7.38;;;5.25;;
38264;SDS011;24062;47.480;8.768;2023-06-22T06:58:24;11.13;;;5.40;;
38264;SDS011;24062;47.480;8.768;2023-06-22T07:00:50;11.07;;;4.90;;
38264;SDS011;24062;47.480;8.768;2023-06-22T07:03:17;8.40;;;5.60;;
38264;SDS011;24062;47.480;8.768;2023-06-22T07:05:44;7.03;;;5.22;;
38264;SDS011;24062;47.480;8.768;2023-06-22T07:08:11;13.50;;;5.72;;
38264;SDS011;24062;47.480;8.768;2023-06-22T07:10:39;7.15;;;3.95;;
38264;SDS011;24062;47.480;8.768;2023-06-22T07:13:06;12.20;;;4.57;;
38264;SDS011;24062;47.480;8.768;2023-06-22T07:15:33;7.70;;;4.22;;
38264;SDS011;24062;47.480;8.768;2023-06-22T07:18:00;7.07;;;4.13;;
38264;SDS011;24062;47.480;8.768;2023-06-22T07:20:27;5.57;;;4.90;;
38264;SDS011;24062;47.480;8.768;2023-06-22T07:22:54;7.10;;;4.47;;
38264;SDS011;24062;47.480;8.768;2023-06-22T07:25:21;6.05;;;5.22;;
38264;SDS011;24062;47.480;8.768;2023-06-22T07:27:58;9.70;;;4.60;;
38264;SDS011;24062;47.480;8.768;2023-06-22T07:30:27;7.25;;;5.35;;
38264;SDS011;24062;47.480;8.768;2023-06-22T07:32:54;9.20;;;6.13;;
38264;SDS011;24062;47.480;8.768;2023-06-22T07:35:21;7.30;;;5.63;;
38264;SDS011;24062;47.480;8.768;2023-06-22T07:37:48;9.43;;;5.85;;
38264;SDS011;24062;47.480;8.768;2023-06-22T07:40:15;8.20;;;4.70;;
38264;SDS011;24062;47.480;8.768;2023-06-22T07:42:42;5.90;;;5.10;;
38264;SDS011;24062;47.480;8.768;2023-06-22T07:45:11;6.50;;;4.40;;
38264;SDS011;24062;47.480;8.768;2023-06-22T07:47:38;7.95;;;4.50;;
38264;SDS011;24062;47.480;8.768;2023-06-22T07:50:05;10.43;;;5.05;;
38264;SDS011;24062;47.480;8.768;2023-06-22T07:52:33;8.35;;;5.28;;
38264;SDS011;24062;47.480;8.768;2023-06-22T07:54:59;7.32;;;5.68;;
38264;SDS011;24062;47.480;8.768;2023-06-22T07:57:27;14.27;;;5.90;;
38264;SDS011;24062;47.480;8.768;2023-06-22T07:59:58;7.10;;;5.22;;
38264;SDS011;24062;47.480;8.768;2023-06-22T08:02:27;10.73;;;5.40;;
38264;SDS011;24062;47.480;8.768;2023-06-22T08:04:54;12.02;;;5.22;;
38264;SDS011;24062;47.480;8.768;2023-06-22T08:07:21;7.78;;;5.18;;
38264;SDS011;24062;47.480;8.768;2023-06-22T08:09:48;9.80;;;4.75;;
38264;SDS011;24062;47.480;8.768;2023-06-22T08:12:15;7.32;;;4.75;;
38264;SDS011;24062;47.480;8.768;2023-06-22T08:14:43;7.20;;;4.80;;
38264;SDS011;24062;47.480;8.768;2023-06-22T08:17:11;10.73;;;5.25;;
38264;SDS011;24062;47.480;8.768;2023-06-22T08:19:39;9.32;;;4.97;;
38264;SDS011;24062;47.480;8.768;2023-06-22T08:22:07;8.45;;;4.60;;
38264;SDS011;24062;47.480;8.768;2023-06-22T08:24:34;5.15;;;4.75;;
38264;SDS011;24062;47.480;8.768;2023-06-22T08:27:00;5.63;;;4.25;;
38264;SDS011;24062;47.480;8.768;2023-06-22T08:29:27;8.45;;;5.05;;
38264;SDS011;24062;47.480;8.768;2023-06-22T08:31:54;6.38;;;4.22;;
38264;SDS011;24062;47.480;8.768;2023-06-22T08:34:21;7.43;;;4.63;;
38264;SDS011;24062;47.480;8.768;2023-06-22T08:36:51;9.05;;;4.75;;
38264;SDS011;24062;47.480;8.768;2023-06-22T08:39:19;9.60;;;4.80;;
38264;SDS011;24062;47.480;8.768;2023-06-22T08:41:46;10.38;;;4.97;;
38264;SDS011;24062;47.480;8.768;2023-06-22T08:44:13;8.85;;;4.20;;
38264;SDS011;24062;47.480;8.768;2023-06-22T08:46:40;9.13;;;5.25;;
38264;SDS011;24062;47.480;8.768;2023-06-22T08:49:07;6.20;;;4.90;;
38264;SDS011;24062;47.480;8.768;2023-06-22T08:51:34;13.45;;;4.90;;
38264;SDS011;24062;47.480;8.768;2023-06-22T08:54:03;8.18;;;4.68;;
38264;SDS011;24062;47.480;8.768;2023-06-22T08:56:30;7.47;;;4.47;;
38264;SDS011;24062;47.480;8.768;2023-06-22T08:58:57;7.32;;;5.20;;
38264;SDS011;24062;47.480;8.768;2023-06-22T09:01:24;7.30;;;4.55;;
38264;SDS011;24062;47.480;8.768;2023-06-22T09:03:50;8.38;;;4.22;;
38264;SDS011;24062;47.480;8.768;2023-06-22T09:06:22;4.88;;;4.38;;
38264;SDS011;24062;47.480;8.768;2023-06-22T09:08:50;8.52;;;4.43;;
38264;SDS011;24062;47.480;8.768;2023-06-22T09:11:18;7.82;;;4.72;;
38264;SDS011;24062;47.480;8.768;2023-06-22T09:13:45;14.15;;;5.60;;
38264;SDS011;24062;47.480;8.768;2023-06-22T09:16:12;7.95;;;4.15;;
38264;SDS011;24062;47.480;8.768;2023-06-22T09:18:39;6.22;;;4.40;;
38264;SDS011;24062;47.480;8.768;2023-06-22T09:21:07;5.35;;;3.80;;
38264;SDS011;24062;47.480;8.768;2023-06-22T09:23:33;7.93;;;4.95;;
38264;SDS011;24062;47.480;8.768;2023-06-22T09:26:00;9.20;;;5.10;;
38264;SDS011;24062;47.480;8.768;2023-06-22T09:28:29;10.07;;;4.93;;
38264;SDS011;24062;47.480;8.768;2023-06-22T09:30:56;7.38;;;4.38;;
38264;SDS011;24062;47.480;8.768;2023-06-22T09:33:24;6.93;;;4.40;;
38264;SDS011;24062;47.480;8.768;2023-06-22T09:35:51;9.07;;;5.00;;
38264;SDS011;24062;47.480;8.768;2023-06-22T09:38:18;20.67;;;5.70;;
38264;SDS011;24062;47.480;8.768;2023-06-22T09:40:45;6.95;;;4.63;;
38264;SDS011;24062;47.480;8.768;2023-06-22T09:43:12;5.13;;;4.50;;
38264;SDS011;24062;47.480;8.768;2023-06-22T09:45:40;8.68;;;5.63;;
38264;SDS011;24062;47.480;8.768;2023-06-22T09:48:07;10.15;;;5.15;;
38264;SDS011;24062;47.480;8.768;2023-06-22T09:50:35;11.95;;;4.68;;
38264;SDS011;24062;47.480;8.768;2023-06-22T09:53:02;12.43;;;5.25;;
38264;SDS011;24062;47.480;8.768;2023-06-22T09:55:29;7.00;;;4.47;;
38264;SDS011;24062;47.480;8.768;2023-06-22T09:57:56;6.80;;;4.32;;
38264;SDS011;24062;47.480;8.768;2023-06-22T10:00:23;6.60;;;4.22;;
38264;SDS011;24062;47.480;8.768;2023-06-22T10:02:53;5.90;;;4.53;;
38264;SDS011;24062;47.480;8.768;2023-06-22T10:05:20;7.18;;;4.53;;
38264;SDS011;24062;47.480;8.768;2023-06-22T10:07:47;6.55;;;4.57;;
38264;SDS011;24062;47.480;8.768;2023-06-22T10:10:14;7.78;;;4.00;;
38264;SDS011;24062;47.480;8.768;2023-06-22T10:12:43;9.50;;;4.25;;
38264;SDS011;24062;47.480;8.768;2023-06-22T10:15:11;6.18;;;4.05;;
38264;SDS011;24062;47.480;8.768;2023-06-22T10:17:38;7.95;;;4.78;;
38264;SDS011;24062;47.480;8.768;2023-06-22T10:20:07;8.90;;;3.83;;
38264;SDS011;24062;47.480;8.768;2023-06-22T10:22:38;12.15;;;4.82;;
38264;SDS011;24062;47.480;8.768;2023-06-22T10:25:06;7.80;;;3.88;;
38264;SDS011;24062;47.480;8.768;2023-06-22T10:27:34;6.53;;;3.97;;
38264;SDS011;24062;47.480;8.768;2023-06-22T10:30:01;10.07;;;4.25;;
38264;SDS011;24062;47.480;8.768;2023-06-22T10:32:30;7.32;;;4.28;;
38264;SDS011;24062;47.480;8.768;2023-06-22T10:34:57;7.03;;;4.18;;
38264;SDS011;24062;47.480;8.768;2023-06-22T10:37:25;8.05;;;4.03;;
38264;SDS011;24062;47.480;8.768;2023-06-22T10:39:52;6.63;;;3.60;;
38264;SDS011;24062;47.480;8.768;2023-06-22T10:42:19;10.40;;;4.00;;
38264;SDS011;24062;47.480;8.768;2023-06-22T10:44:46;12.25;;;4.45;;
38264;SDS011;24062;47.480;8.768;2023-06-22T10:47:13;9.73;;;4.13;;
38264;SDS011;24062;47.480;8.768;2023-06-22T10:49:40;9.48;;;3.95;;
38264;SDS011;24062;47.480;8.768;2023-06-22T10:52:07;4.95;;;3.47;;
38264;SDS011;24062;47.480;8.768;2023-06-22T10:54:36;5.32;;;3.53;;
38264;SDS011;24062;47.480;8.768;2023-06-22T10:57:04;7.00;;;4.40;;
38264;SDS011;24062;47.480;8.768;2023-06-22T10:59:31;6.05;;;3.47;;
38264;SDS011;24062;47.480;8.768;2023-06-22T11:01:58;4.55;;;3.83;;
38264;SDS011;24062;47.480;8.768;2023-06-22T11:04:25;6.57;;;4.20;;
38264;SDS011;24062;47.480;8.768;2023-06-22T11:06:52;7.82;;;4.45;;
38264;SDS011;24062;47.480;8.768;2023-06-22T11:09:19;7.68;;;3.83;;
38264;SDS011;24062;47.480;8.768;2023-06-22T11:11:48;11.32;;;4.80;;
38264;SDS011;24062;47.480;8.768;2023-06-22T11:14:18;8.88;;;4.25;;
38264;SDS011;24062;47.480;8.768;2023-06-22T11:16:45;7.75;;;4.50;;
38264;SDS011;24062;47.480;8.768;2023-06-22T11:19:12;5.45;;;4.55;;
38264;SDS011;24062;47.480;8.768;2023-06-22T11:21:39;10.93;;;4.70;;
38264;SDS011;24062;47.480;8.768;2023-06-22T11:24:06;5.55;;;4.03;;
38264;SDS011;24062;47.480;8.768;2023-06-22T11:26:33;6.13;;;4.55;;
38264;SDS011;24062;47.480;8.768;2023-06-22T11:29:02;8.00;;;3.90;;
38264;SDS011;24062;47.480;8.768;2023-06-22T11:31:30;9.48;;;4.07;;
38264;SDS011;24062;47.480;8.768;2023-06-22T11:33:57;11.82;;;4.40;;
38264;SDS011;24062;47.480;8.768;2023-06-22T11:36:24;13.80;;;4.30;;
38264;SDS011;24062;47.480;8.768;2023-06-22T11:38:52;8.23;;;4.32;;
38264;SDS011;24062;47.480;8.768;2023-06-22T11:41:19;8.95;;;4.57;;
38264;SDS011;24062;47.480;8.768;2023-06-22T11:43:46;11.57;;;4.78;;
38264;SDS011;24062;47.480;8.768;2023-06-22T11:46:14;7.35;;;3.97;;
38264;SDS011;24062;47.480;8.768;2023-06-22T11:48:41;11.80;;;4.40;;
38264;SDS011;24062;47.480;8.768;2023-06-22T11:51:08;8.85;;;4.45;;
38264;SDS011;24062;47.480;8.768;2023-06-22T11:53:35;6.72;;;4.00;;
38264;SDS011;24062;47.480;8.768;2023-06-22T11:56:02;9.35;;;4.50;;
38264;SDS011;24062;47.480;8.768;2023-06-22T11:58:29;12.60;;;5.05;;
38264;SDS011;24062;47.480;8.768;2023-06-22T12:00:56;8.52;;;4.57;;
38264;SDS011;24062;47.480;8.768;2023-06-22T12:03:24;12.07;;;4.97;;
38264;SDS011;24062;47.480;8.768;2023-06-22T12:05:51;10.48;;;4.60;;
38264;SDS011;24062;47.480;8.768;2023-06-22T12:08:19;15.35;;;5.20;;
38264;SDS011;24062;47.480;8.768;2023-06-22T12:10:46;8.27;;;4.90;;
38264;SDS011;24062;47.480;8.768;2023-06-22T12:13:13;8.52;;;4.20;;
38264;SDS011;24062;47.480;8.768;2023-06-22T12:15:40;9.57;;;5.38;;
38264;SDS011;24062;47.480;8.768;2023-06-22T12:18:07;11.88;;;5.10;;
38264;SDS011;24062;47.480;8.768;2023-06-22T12:20:35;9.90;;;5.22;;
38264;SDS011;24062;47.480;8.768;2023-06-22T12:23:02;8.80;;;4.00;;
38264;SDS011;24062;47.480;8.768;2023-06-22T12:25:29;10.90;;;4.95;;
38264;SDS011;24062;47.480;8.768;2023-06-22T12:27:56;10.00;;;4.47;;
38264;SDS011;24062;47.480;8.768;2023-06-22T12:30:23;8.02;;;4.88;;
38264;SDS011;24062;47.480;8.768;2023-06-22T12:32:50;10.70;;;5.13;;
38264;SDS011;24062;47.480;8.768;2023-06-22T12:35:17;8.68;;;4.65;;
38264;SDS011;24062;47.480;8.768;2023-06-22T12:37:45;11.40;;;5.45;;
38264;SDS011;24062;47.480;8.768;2023-06-22T12:40:12;8.20;;;4.95;;
38264;SDS011;24062;47.480;8.768;2023-06-22T12:42:39;18.02;;;5.50;;
38264;SDS011;24062;47.480;8.768;2023-06-22T12:45:07;9.75;;;6.20;;
38264;SDS011;24062;47.480;8.768;2023-06-22T12:47:34;19.15;;;6.00;;
38264;SDS011;24062;47.480;8.768;2023-06-22T12:50:01;8.55;;;4.90;;
38264;SDS011;24062;47.480;8.768;2023-06-22T12:52:29;6.35;;;4.30;;
38264;SDS011;24062;47.480;8.768;2023-06-22T12:54:58;9.27;;;5.43;;
38264;SDS011;24062;47.480;8.768;2023-06-22T12:57:25;10.23;;;5.65;;
38264;SDS011;24062;47.480;8.768;2023-06-22T12:59:52;7.28;;;5.38;;
38264;SDS011;24062;47.480;8.768;2023-06-22T13:02:19;11.50;;;4.93;;
38264;SDS011;24062;47.480;8.768;2023-06-22T13:04:46;10.10;;;4.95;;
38264;SDS011;24062;47.480;8.768;2023-06-22T13:07:13;7.47;;;5.13;;
38264;SDS011;24062;47.480;8.768;2023-06-22T13:09:40;6.70;;;4.43;;
38264;SDS011;24062;47.480;8.768;2023-06-22T13:12:08;7.50;;;4.53;;
38264;SDS011;24062;47.480;8.768;2023-06-22T13:14:35;6.68;;;4.97;;
38264;SDS011;24062;47.480;8.768;2023-06-22T13:17:02;10.10;;;5.68;;
38264;SDS011;24062;47.480;8.768;2023-06-22T13:19:29;8.52;;;5.60;;
38264;SDS011;24062;47.480;8.768;2023-06-22T13:21:57;5.20;;;4.70;;
38264;SDS011;24062;47.480;8.768;2023-06-22T13:24:27;8.23;;;4.45;;
38264;SDS011;24062;47.480;8.768;2023-06-22T13:26:54;10.88;;;5.00;;
38264;SDS011;24062;47.480;8.768;2023-06-22T13:29:22;9.30;;;4.88;;
38264;SDS011;24062;47.480;8.768;2023-06-22T13:31:49;7.07;;;4.65;;
38264;SDS011;24062;47.480;8.768;2023-06-22T13:34:16;9.35;;;4.60;;
38264;SDS011;24062;47.480;8.768;2023-06-22T13:36:43;11.05;;;5.35;;
38264;SDS011;24062;47.480;8.768;2023-06-22T13:39:11;11.70;;;4.40;;
38264;SDS011;24062;47.480;8.768;2023-06-22T13:41:38;7.55;;;4.03;;
38264;SDS011;24062;47.480;8.768;2023-06-22T13:44:04;8.65;;;4.43;;
38264;SDS011;24062;47.480;8.768;2023-06-22T13:46:33;7.80;;;4.22;;
38264;SDS011;24062;47.480;8.768;2023-06-22T13:49:00;6.13;;;3.85;;
38264;SDS011;24062;47.480;8.768;2023-06-22T13:51:27;11.00;;;4.55;;
38264;SDS011;24062;47.480;8.768;2023-06-22T13:53:53;9.40;;;4.10;;
38264;SDS011;24062;47.480;8.768;2023-06-22T13:56:20;10.55;;;4.70;;
38264;SDS011;24062;47.480;8.768;2023-06-22T13:58:47;8.27;;;4.38;;
38264;SDS011;24062;47.480;8.768;2023-06-22T14:01:14;12.85;;;4.32;;
38264;SDS011;24062;47.480;8.768;2023-06-22T14:03:43;6.05;;;3.83;;
38264;SDS011;24062;47.480;8.768;2023-06-22T14:06:10;9.32;;;3.83;;
38264;SDS011;24062;47.480;8.768;2023-06-22T14:08:37;6.90;;;3.60;;
38264;SDS011;24062;47.480;8.768;2023-06-22T14:11:04;9.75;;;4.10;;
38264;SDS011;24062;47.480;8.768;2023-06-22T14:13:31;11.70;;;3.72;;
38264;SDS011;24062;47.480;8.768;2023-06-22T14:15:58;9.93;;;3.60;;
38264;SDS011;24062;47.480;8.768;2023-06-22T14:18:25;9.30;;;3.92;;
38264;SDS011;24062;47.480;8.768;2023-06-22T14:20:53;10.80;;;3.50;;
38264;SDS011;24062;47.480;8.768;2023-06-22T14:23:20;8.15;;;3.72;;
38264;SDS011;24062;47.480;8.768;2023-06-22T14:25:47;7.25;;;3.45;;
38264;SDS011;24062;47.480;8.768;2023-06-22T14:28:14;8.65;;;3.90;;
38264;SDS011;24062;47.480;8.768;2023-06-22T14:30:42;5.38;;;3.15;;
38264;SDS011;24062;47.480;8.768;2023-06-22T14:33:11;6.10;;;3.58;;
38264;SDS011;24062;47.480;8.768;2023-06-22T14:35:38;10.27;;;3.53;;
38264;SDS011;24062;47.480;8.768;2023-06-22T14:38:06;7.97;;;3.80;;
38264;SDS011;24062;47.480;8.768;2023-06-22T14:40:33;7.88;;;3.20;;
38264;SDS011;24062;47.480;8.768;2023-06-22T14:43:00;13.50;;;3.67;;
38264;SDS011;24062;47.480;8.768;2023-06-22T14:45:27;7.90;;;3.65;;
38264;SDS011;24062;47.480;8.768;2023-06-22T14:47:54;10.48;;;4.18;;